createdAt,value
2022-12-22T00:04:47.118Z,95.80
2022-12-22T00:10:12.812Z,69.80
2022-12-22T00:15:35.480Z,115.70
2022-12-22T00:20:55.896Z,112.10
2022-12-22T01:11:47.939Z,65.10
2022-12-22T01:17:08.553Z,65.10
2022-12-22T01:50:50.889Z,51.30
2022-12-22T01:56:11.621Z,50.60
2022-12-22T02:12:26.908Z,51.70
2022-12-22T02:18:09.947Z,53.20
2022-12-22T02:23:51.769Z,42.40
2022-12-22T02:29:12.763Z,55.10
2022-12-22T02:40:35.711Z,64.80
2022-12-22T02:57:25.934Z,49.30
2022-12-22T03:02:46.832Z,52.20
2022-12-22T03:19:49.393Z,52.70
2022-12-22T03:25:10.065Z,56.50
2022-12-22T03:30:11.892Z,84.20
2022-12-22T03:35:13.555Z,86.60
2022-12-22T03:40:21.898Z,92.70
2022-12-22T03:45:42.416Z,61.40
2022-12-22T03:50:44.784Z,68.50
2022-12-22T03:55:46.565Z,71.30
2022-12-22T04:00:48.321Z,62.10
2022-12-22T04:05:49.979Z,68.50
2022-12-22T04:11:10.388Z,78.80
2022-12-22T04:16:12.729Z,78.80
2022-12-22T04:21:14.430Z,78.80
2022-12-22T04:26:16.121Z,86.70
2022-12-22T04:31:18.483Z,87.50
2022-12-22T04:36:20.354Z,79.70
2022-12-22T04:41:22.029Z,85.50
2022-12-22T04:46:23.850Z,74.50
2022-12-22T04:51:25.624Z,86.40
2022-12-22T04:56:27.452Z,76.60
2022-12-22T05:01:29.439Z,69.90
2022-12-22T05:06:31.281Z,60.30
2022-12-22T05:11:33.023Z,59.10
2022-12-22T05:16:34.718Z,61.00
2022-12-22T05:21:36.381Z,62.90
2022-12-22T05:26:38.211Z,62.00
2022-12-22T05:31:46.810Z,53.40
2022-12-22T05:36:49.116Z,63.60
2022-12-22T05:41:50.850Z,68.60
2022-12-22T05:46:52.657Z,66.50
2022-12-22T05:51:55.874Z,59.40
2022-12-22T05:56:57.541Z,54.10
2022-12-22T06:01:59.427Z,58.60
2022-12-22T06:07:01.126Z,61.60
2022-12-22T06:12:03.114Z,58.30
2022-12-22T06:17:04.889Z,70.00
2022-12-22T06:22:06.668Z,69.00
2022-12-22T06:27:08.903Z,78.10
2022-12-22T06:32:10.589Z,69.00
2022-12-22T06:37:12.425Z,67.20
2022-12-22T06:42:32.709Z,57.60
2022-12-22T06:47:34.412Z,62.50
2022-12-22T06:52:36.245Z,48.50
2022-12-22T06:57:37.974Z,53.60
2022-12-22T07:02:40.219Z,54.20
2022-12-22T07:07:42.417Z,49.80
2022-12-22T07:12:44.128Z,56.20
2022-12-22T07:17:45.855Z,51.10
2022-12-22T07:22:47.923Z,50.80
2022-12-22T07:27:49.601Z,50.80
2022-12-22T07:32:51.329Z,43.10
2022-12-22T07:37:53.262Z,58.60
2022-12-22T07:42:59.358Z,57.50
2022-12-22T07:48:23.062Z,64.00
2022-12-22T07:53:24.671Z,59.90
2022-12-22T07:58:26.419Z,57.80
2022-12-22T08:03:28.606Z,66.60
2022-12-22T08:08:30.658Z,58.80
2022-12-22T08:13:32.712Z,57.10
2022-12-22T08:18:35.345Z,57.10
2022-12-22T08:23:37.139Z,54.80
2022-12-22T08:28:44.837Z,63.20
2022-12-22T08:33:47.479Z,52.90
2022-12-22T08:38:49.472Z,54.40
2022-12-22T08:43:51.160Z,52.80
2022-12-22T08:48:52.843Z,50.80
2022-12-22T08:54:09.663Z,52.70
2022-12-22T08:59:12.162Z,48.40
2022-12-22T09:04:15.875Z,46.50
2022-12-22T09:09:18.716Z,42.00
2022-12-22T09:14:20.415Z,51.20
2022-12-22T09:19:22.595Z,49.90
2022-12-22T09:24:24.275Z,54.70
2022-12-22T09:29:26.116Z,50.20
2022-12-22T09:34:27.848Z,49.80
2022-12-22T09:39:29.815Z,46.90
2022-12-22T09:44:40.322Z,51.10
2022-12-22T09:49:42.389Z,50.50
2022-12-22T09:54:44.040Z,51.70
2022-12-22T09:59:45.892Z,49.90
2022-12-22T10:05:06.629Z,49.60
2022-12-22T10:10:25.314Z,46.00
2022-12-22T10:15:34.258Z,39.10
2022-12-22T10:20:38.460Z,38.20
2022-12-22T10:26:26.714Z,34.30
2022-12-22T10:31:14.696Z,38.50
2022-12-22T10:36:23.932Z,41.80
2022-12-22T10:41:29.232Z,41.00
2022-12-22T10:46:58.218Z,39.30
2022-12-22T10:52:09.205Z,45.00
2022-12-22T10:57:13.845Z,36.10
2022-12-22T11:02:22.617Z,39.50
2022-12-22T11:07:24.662Z,41.30
2022-12-22T11:12:44.609Z,29.50
2022-12-22T11:18:08.331Z,30.30
2022-12-22T11:23:26.376Z,33.60
2022-12-22T11:34:21.225Z,36.60
2022-12-22T11:39:34.593Z,42.00
2022-12-22T11:44:46.331Z,38.90
2022-12-22T11:51:09.224Z,45.20
2022-12-22T11:55:40.524Z,48.50
2022-12-22T12:01:16.248Z,40.30
2022-12-22T12:06:48.177Z,45.10
2022-12-22T12:12:13.256Z,47.80
2022-12-22T12:17:36.129Z,50.60
2022-12-22T12:22:56.746Z,47.10
2022-12-22T12:28:13.130Z,42.90
2022-12-22T12:33:35.593Z,48.90
2022-12-22T12:39:15.401Z,51.40
2022-12-22T12:44:21.358Z,58.00
2022-12-22T12:49:34.935Z,54.20
2022-12-22T12:54:44.198Z,56.20
2022-12-22T12:59:46.517Z,55.90
2022-12-22T13:05:07.930Z,61.70
2022-12-22T13:10:21.232Z,63.20
2022-12-22T13:15:38.197Z,78.60
2022-12-22T13:20:41.169Z,77.90
2022-12-22T13:25:50.851Z,58.20
2022-12-22T13:31:03.893Z,55.00
2022-12-22T13:36:15.475Z,45.60
2022-12-22T13:41:26.892Z,43.00
2022-12-22T13:46:32.470Z,45.40
2022-12-22T13:51:37.002Z,39.60
2022-12-22T13:56:43.284Z,44.30
2022-12-22T14:01:56.599Z,37.60
2022-12-22T14:07:13.713Z,45.60
2022-12-22T14:12:18.675Z,39.10
2022-12-22T14:17:33.686Z,43.90
2022-12-22T14:22:39.811Z,44.90
2022-12-22T14:27:46.360Z,42.00
2022-12-22T14:32:55.191Z,42.50
2022-12-22T14:38:18.926Z,37.60
2022-12-22T14:43:20.522Z,44.40
2022-12-22T14:48:30.025Z,38.90
2022-12-22T14:53:43.340Z,42.30
2022-12-22T14:58:46.663Z,36.50
2022-12-22T15:04:17.152Z,45.50
2022-12-22T15:09:33.356Z,33.50
2022-12-22T15:14:42.816Z,40.50
2022-12-22T15:19:44.695Z,41.40
2022-12-22T15:24:47.888Z,40.90
2022-12-22T15:29:49.623Z,44.70
2022-12-22T15:34:51.403Z,46.10
2022-12-22T15:39:53.118Z,42.60
2022-12-22T15:44:54.769Z,49.50
2022-12-22T15:49:56.508Z,42.00
2022-12-22T15:54:58.474Z,48.90
2022-12-22T16:00:00.309Z,58.20
2022-12-22T16:05:01.978Z,54.80
2022-12-22T16:10:05.973Z,67.60
2022-12-22T16:15:13.802Z,60.50
2022-12-22T16:20:15.707Z,58.50
2022-12-22T16:25:21.886Z,51.50
2022-12-22T16:30:26.259Z,58.30
2022-12-22T16:35:29.979Z,50.90
2022-12-22T16:40:33.519Z,59.90
2022-12-22T16:45:36.623Z,72.70
2022-12-22T16:50:38.265Z,70.20
2022-12-22T16:55:41.072Z,59.50
2022-12-22T17:00:45.165Z,71.90
2022-12-22T17:05:51.483Z,63.40
2022-12-22T17:10:56.422Z,87.00
2022-12-22T17:15:58.218Z,80.00
2022-12-22T17:21:00.453Z,83.70
2022-12-22T17:26:06.107Z,78.00
2022-12-22T17:31:08.002Z,75.70
2022-12-22T17:36:18.762Z,64.20
2022-12-22T17:41:20.784Z,76.00
2022-12-22T17:46:22.801Z,125.90
2022-12-22T17:51:28.137Z,106.50
2022-12-22T17:56:31.385Z,101.40
2022-12-22T18:01:33.923Z,91.60
2022-12-22T18:06:39.395Z,68.20
2022-12-22T18:11:45.905Z,78.50
2022-12-22T18:16:48.242Z,54.40
2022-12-22T18:21:50.068Z,74.10
2022-12-22T18:26:51.898Z,75.40
2022-12-22T18:31:53.854Z,67.40
2022-12-22T18:36:56.069Z,65.90
2022-12-22T18:41:58.443Z,54.80
2022-12-22T18:47:00.347Z,59.00
2022-12-22T18:52:02.195Z,49.20
2022-12-22T18:57:16.501Z,56.80
2022-12-22T19:02:29.682Z,64.40
2022-12-22T19:07:31.453Z,61.00
2022-12-22T19:12:34.350Z,48.50
2022-12-22T19:17:37.085Z,57.60
2022-12-22T19:22:38.740Z,58.80
2022-12-22T19:27:40.781Z,60.40
2022-12-22T19:32:47.805Z,86.20
2022-12-22T19:37:51.752Z,64.30
2022-12-22T19:42:56.523Z,87.40
2022-12-22T19:47:58.253Z,76.60
2022-12-22T19:53:00.019Z,62.00
2022-12-22T19:58:02.752Z,74.50
2022-12-22T20:03:06.181Z,59.80
2022-12-22T20:08:08.261Z,83.60
2022-12-22T20:13:21.133Z,81.80
2022-12-22T20:18:27.548Z,81.90
2022-12-22T20:23:31.326Z,107.70
2022-12-22T20:28:36.631Z,77.60
2022-12-22T20:33:40.981Z,88.00
2022-12-22T20:38:44.146Z,79.20
2022-12-22T20:43:47.919Z,61.50
2022-12-22T20:48:54.501Z,73.00
2022-12-22T20:53:57.380Z,80.90
2022-12-22T20:59:01.864Z,71.80
2022-12-22T21:04:03.470Z,68.00
2022-12-22T21:09:05.708Z,76.70
2022-12-22T21:14:07.362Z,68.50
2022-12-22T21:19:16.236Z,62.70
2022-12-22T21:24:18.843Z,67.00
2022-12-22T21:29:25.437Z,63.90
2022-12-22T21:34:28.644Z,57.80
2022-12-22T21:39:42.653Z,58.40
2022-12-22T21:44:45.175Z,58.70
2022-12-22T21:49:46.979Z,54.20
2022-12-22T21:54:48.630Z,64.40
2022-12-22T21:59:50.345Z,58.00
2022-12-22T22:04:54.969Z,58.00
2022-12-22T22:09:57.342Z,71.70
2022-12-22T22:15:05.654Z,57.60
2022-12-22T22:20:09.115Z,57.90
2022-12-22T22:25:11.704Z,60.00
2022-12-22T22:30:22.192Z,61.10
2022-12-22T22:35:27.164Z,64.80
2022-12-22T22:40:28.819Z,70.50
2022-12-22T22:45:30.597Z,63.10
2022-12-22T22:50:32.712Z,74.30
2022-12-22T22:55:34.484Z,92.90
2022-12-22T23:00:36.123Z,90.00
2022-12-22T23:05:37.781Z,60.10
2022-12-22T23:10:42.120Z,70.90
2022-12-22T23:15:56.345Z,60.70
2022-12-22T23:20:59.174Z,65.50
2022-12-22T23:26:01.235Z,66.70
2022-12-22T23:31:02.989Z,66.70
2022-12-22T23:36:05.329Z,61.00
2022-12-22T23:41:10.752Z,57.10
2022-12-22T23:46:15.103Z,52.00
2022-12-22T23:51:16.743Z,55.20
2022-12-22T23:56:18.629Z,52.00
